You are not logged in, Click here to log in
北京首都國際機場(PEK) / ZBAA 大陸北京市顺义区
ICAO: ZBAA Country: 大陸北京市顺义区
Latitude: 40.0799 Longitude: 116.603
Total Arrivals: 57 Total Departures: 66
Latest Arrival: CI561 (ZLXY-ZBAA)Arthur. Kung Latest Departure: CA1331 (ZBAA-ZHCC)Arthur. Kung
Scenery:
METAR : ZBAA 241400Z 00000MPS CAVOK 07/02 Q1019 NOSIG

北京首都國際機場(PEK)

You are accessing this site from IP address 54.236.35.159. Virtual Airline. CMS by phpVMS.Website designed by Zumeweb and edited by Theo Bearman.
There is 0 User(s) Online: | and 16 Guest(s) Online.
All information on this site is for fight simulation purposes only. This site is for flight logging for pilots of Virtual Airline&模擬飛行論壇 FlySim only.